createdAt,value
2023-05-08T00:00:19.866Z,82.59
2023-05-08T00:01:19.982Z,82.49
2023-05-08T00:02:19.919Z,82.63
2023-05-08T00:03:19.997Z,82.73
2023-05-08T00:04:19.948Z,82.83
2023-05-08T00:05:19.869Z,82.79
2023-05-08T00:06:19.910Z,82.73
2023-05-08T00:07:19.757Z,82.73
2023-05-08T00:08:19.776Z,82.63
2023-05-08T00:09:19.880Z,82.83
2023-05-08T00:10:19.806Z,82.93
2023-05-08T00:11:19.803Z,82.93
2023-05-08T00:12:19.800Z,83.04
2023-05-08T00:13:19.880Z,83.14
2023-05-08T00:14:19.874Z,83.14
2023-05-08T00:15:19.756Z,83.25
2023-05-08T00:16:19.790Z,83.14
2023-05-08T00:17:19.717Z,83.25
2023-05-08T00:18:19.770Z,83.14
2023-05-08T00:19:19.854Z,83.14
2023-05-08T00:20:19.650Z,83.25
2023-05-08T00:21:19.628Z,83.45
2023-05-08T00:22:19.631Z,83.55
2023-05-08T00:23:19.620Z,83.55
2023-05-08T00:24:19.614Z,83.65
2023-05-08T00:25:19.756Z,83.65
2023-05-08T00:26:19.649Z,83.65
2023-05-08T00:27:19.633Z,83.86
2023-05-08T00:28:19.626Z,83.76
2023-05-08T00:29:19.613Z,83.65
2023-05-08T00:30:19.601Z,83.96
2023-05-08T00:31:19.606Z,83.86
2023-05-08T00:32:19.648Z,83.86
2023-05-08T00:33:19.525Z,83.76
2023-05-08T00:34:19.534Z,83.86
2023-05-08T00:35:19.556Z,83.96
2023-05-08T00:36:19.568Z,84.00
2023-05-08T00:37:19.484Z,83.96
2023-05-08T00:38:19.510Z,84.00
2023-05-08T00:39:19.510Z,84.10
2023-05-08T00:40:19.435Z,84.17
2023-05-08T00:41:19.518Z,84.06
2023-05-08T00:42:19.496Z,84.06
2023-05-08T00:43:19.405Z,84.10
2023-05-08T00:44:19.458Z,84.00
2023-05-08T00:45:19.447Z,84.20
2023-05-08T00:46:19.292Z,84.20
2023-05-08T00:47:19.418Z,84.37
2023-05-08T00:48:19.375Z,84.41
2023-05-08T00:49:19.377Z,84.41
2023-05-08T00:50:19.345Z,84.41
2023-05-08T00:51:19.329Z,84.52
2023-05-08T00:52:19.445Z,84.52
2023-05-08T00:53:19.405Z,84.72
2023-05-08T00:54:19.314Z,84.61
2023-05-08T00:55:19.215Z,84.82
2023-05-08T00:56:19.299Z,84.92
2023-05-08T00:57:19.224Z,84.92
2023-05-08T00:58:19.277Z,85.03
2023-05-08T00:59:19.280Z,84.92
2023-05-08T01:00:19.287Z,84.92
2023-05-08T01:01:19.312Z,85.13
2023-05-08T01:02:19.295Z,85.23
2023-05-08T01:03:19.265Z,85.13
2023-05-08T01:04:19.310Z,85.03
2023-05-08T01:05:19.180Z,85.13
2023-05-08T01:06:19.192Z,85.03
2023-05-08T01:07:19.210Z,85.23
2023-05-08T01:08:19.195Z,85.23
2023-05-08T01:09:19.285Z,85.23
2023-05-08T01:10:19.238Z,85.13
2023-05-08T01:11:19.225Z,85.33
2023-05-08T01:12:19.217Z,85.27
2023-05-08T01:13:19.283Z,85.44
2023-05-08T01:14:19.092Z,85.54
2023-05-08T01:15:19.224Z,85.54
2023-05-08T01:16:19.094Z,85.64
2023-05-08T01:17:19.118Z,85.58
2023-05-08T01:18:19.065Z,85.64
2023-05-08T01:19:19.042Z,85.68
2023-05-08T01:20:19.162Z,85.99
2023-05-08T01:21:19.047Z,85.89
2023-05-08T01:22:19.033Z,85.78
2023-05-08T01:23:19.028Z,85.89
2023-05-08T01:24:18.911Z,85.89
2023-05-08T01:25:18.889Z,85.99
2023-05-08T01:26:18.949Z,85.99
2023-05-08T01:27:18.950Z,86.09
2023-05-08T01:28:18.955Z,85.99
2023-05-08T01:29:18.957Z,85.89
2023-05-08T01:30:18.921Z,85.99
2023-05-08T01:31:18.986Z,85.89
2023-05-08T01:32:18.894Z,86.09
2023-05-08T01:33:19.026Z,86.09
2023-05-08T01:34:18.729Z,86.19
2023-05-08T01:35:18.887Z,86.09
2023-05-08T01:36:18.967Z,86.30
2023-05-08T01:37:18.873Z,86.30
2023-05-08T01:38:18.863Z,86.30
2023-05-08T01:39:18.875Z,86.19
2023-05-08T01:40:18.819Z,86.19
2023-05-08T01:41:18.881Z,86.19
2023-05-08T01:42:18.812Z,86.19
2023-05-08T01:43:18.813Z,86.30
2023-05-08T01:44:18.803Z,86.40
2023-05-08T01:45:18.785Z,86.30
2023-05-08T01:46:18.822Z,86.50
2023-05-08T01:47:18.844Z,86.50
2023-05-08T01:48:18.760Z,86.40
2023-05-08T01:49:18.569Z,86.30
2023-05-08T01:50:18.713Z,86.40
2023-05-08T01:51:18.711Z,86.30
2023-05-08T01:52:18.753Z,86.50
2023-05-08T01:53:18.749Z,86.50
2023-05-08T01:54:18.675Z,86.60
2023-05-08T01:55:18.700Z,86.60
2023-05-08T01:56:18.686Z,86.50
2023-05-08T01:57:18.657Z,86.50
2023-05-08T01:58:18.744Z,86.60
2023-05-08T01:59:18.660Z,86.71
2023-05-08T02:00:18.482Z,86.60
2023-05-08T02:01:18.785Z,86.60
2023-05-08T02:02:18.638Z,86.71
2023-05-08T02:03:18.679Z,86.81
2023-05-08T02:04:18.803Z,86.81
2023-05-08T02:05:18.627Z,86.60
2023-05-08T02:06:18.607Z,86.75
2023-05-08T02:07:18.592Z,86.81
2023-05-08T02:08:18.580Z,86.85
2023-05-08T02:09:18.586Z,86.65
2023-05-08T02:10:18.492Z,86.85
2023-05-08T02:11:18.560Z,86.75
2023-05-08T02:12:18.469Z,86.71
2023-05-08T02:13:18.508Z,86.85
2023-05-08T02:14:18.556Z,86.85
2023-05-08T02:15:18.462Z,86.75
2023-05-08T02:16:18.455Z,86.75
2023-05-08T02:17:18.424Z,86.71
2023-05-08T02:18:18.427Z,86.85
2023-05-08T02:19:18.430Z,86.81
2023-05-08T02:20:18.526Z,86.95
2023-05-08T02:21:18.440Z,87.05
2023-05-08T02:22:18.439Z,86.95
2023-05-08T02:23:18.423Z,87.05
2023-05-08T02:24:18.417Z,87.05
2023-05-08T02:25:18.488Z,87.16
2023-05-08T02:26:18.415Z,87.16
2023-05-08T02:27:18.319Z,87.26
2023-05-08T02:28:18.323Z,87.26
2023-05-08T02:29:18.403Z,87.26
2023-05-08T02:30:18.394Z,87.26
2023-05-08T02:31:18.287Z,87.26
2023-05-08T02:32:18.443Z,87.37
2023-05-08T02:33:18.263Z,87.26
2023-05-08T02:34:18.317Z,87.26
2023-05-08T02:35:18.321Z,87.37
2023-05-08T02:36:18.288Z,87.37
2023-05-08T02:37:18.210Z,87.37
2023-05-08T02:38:18.270Z,87.46
2023-05-08T02:39:18.200Z,87.46
2023-05-08T02:40:18.266Z,87.37
2023-05-08T02:41:18.191Z,87.46
2023-05-08T02:42:18.222Z,87.40
2023-05-08T02:43:18.214Z,87.57
2023-05-08T02:44:18.178Z,87.57
2023-05-08T02:45:18.094Z,87.57
2023-05-08T02:46:18.177Z,87.67
2023-05-08T02:47:18.218Z,87.57
2023-05-08T02:48:18.120Z,87.61
2023-05-08T02:49:17.975Z,87.61
2023-05-08T02:50:17.931Z,87.57
2023-05-08T02:51:18.137Z,87.71
2023-05-08T02:52:17.931Z,87.71
2023-05-08T02:53:18.182Z,87.82
2023-05-08T02:54:18.029Z,87.77
2023-05-08T02:55:17.908Z,87.71
2023-05-08T02:56:18.081Z,87.57
2023-05-08T02:57:18.134Z,87.82
2023-05-08T02:58:18.113Z,87.82
2023-05-08T02:59:18.033Z,87.71
2023-05-08T03:00:17.812Z,87.71
2023-05-08T03:01:17.968Z,87.71
2023-05-08T03:02:18.110Z,87.82
2023-05-08T03:03:18.115Z,87.71
2023-05-08T03:04:17.890Z,87.71
2023-05-08T03:05:17.932Z,87.71
2023-05-08T03:06:17.883Z,87.71
2023-05-08T03:07:17.915Z,87.71
2023-05-08T03:08:17.996Z,87.71
2023-05-08T03:09:18.034Z,87.71
2023-05-08T03:10:17.910Z,87.71
2023-05-08T03:11:17.963Z,87.82
2023-05-08T03:12:17.831Z,87.82
2023-05-08T03:13:17.857Z,87.71
2023-05-08T03:14:17.765Z,87.82
2023-05-08T03:15:17.896Z,87.82
2023-05-08T03:16:17.803Z,87.92
2023-05-08T03:17:17.794Z,87.82
2023-05-08T03:18:17.845Z,87.92
2023-05-08T03:19:17.754Z,87.92
2023-05-08T03:20:17.742Z,87.82
2023-05-08T03:21:17.713Z,87.82
2023-05-08T03:22:17.825Z,87.82
2023-05-08T03:23:17.773Z,87.92
2023-05-08T03:24:17.770Z,88.02
2023-05-08T03:25:17.590Z,88.02
2023-05-08T03:26:17.639Z,88.02
2023-05-08T03:27:17.521Z,88.02
2023-05-08T03:28:17.661Z,88.02
2023-05-08T03:29:17.683Z,88.02
2023-05-08T03:30:17.620Z,88.02
2023-05-08T03:31:17.659Z,88.02
2023-05-08T03:32:17.678Z,88.02
2023-05-08T03:33:17.605Z,88.12
2023-05-08T03:34:17.621Z,88.12
2023-05-08T03:35:17.647Z,88.12
2023-05-08T03:36:17.595Z,88.23
2023-05-08T03:37:17.367Z,88.27
2023-05-08T03:38:17.567Z,88.27
2023-05-08T03:39:17.524Z,88.23
2023-05-08T03:40:17.631Z,88.12
2023-05-08T03:41:17.491Z,88.23
2023-05-08T03:42:17.513Z,88.02
2023-05-08T03:43:17.523Z,88.12
2023-05-08T03:44:17.530Z,88.23
2023-05-08T03:45:17.447Z,88.12
2023-05-08T03:46:17.620Z,88.12
2023-05-08T03:47:17.474Z,88.02
2023-05-08T03:48:17.537Z,88.02
2023-05-08T03:49:17.265Z,88.12
2023-05-08T03:50:17.534Z,88.12
2023-05-08T03:51:17.238Z,88.12
2023-05-08T03:52:17.432Z,88.02
2023-05-08T03:53:17.424Z,88.12
2023-05-08T03:54:17.448Z,88.12
2023-05-08T03:55:17.376Z,88.02
2023-05-08T03:56:17.462Z,88.02
2023-05-08T03:57:17.377Z,88.02
2023-05-08T03:58:17.348Z,88.02
2023-05-08T03:59:17.327Z,87.82
2023-05-08T04:00:17.177Z,87.92
2023-05-08T04:01:17.196Z,87.82
2023-05-08T04:02:17.420Z,87.71
2023-05-08T04:03:17.435Z,87.71
2023-05-08T04:04:17.367Z,87.46
2023-05-08T04:05:17.260Z,87.26
2023-05-08T04:06:17.282Z,86.85
2023-05-08T04:07:17.174Z,86.65
2023-05-08T04:08:17.357Z,86.44
2023-05-08T04:09:17.252Z,86.65
2023-05-08T04:10:17.205Z,86.85
2023-05-08T04:11:17.153Z,86.95
2023-05-08T04:12:17.182Z,87.20
2023-05-08T04:13:17.331Z,87.20
2023-05-08T04:14:17.228Z,87.30
2023-05-08T04:15:17.266Z,87.40
2023-05-08T04:16:17.034Z,87.40
2023-05-08T04:17:17.240Z,87.51
2023-05-08T04:18:17.223Z,87.61
2023-05-08T04:19:17.126Z,87.51
2023-05-08T04:20:17.120Z,87.61
2023-05-08T04:21:17.076Z,87.82
2023-05-08T04:22:17.060Z,87.51
2023-05-08T04:23:17.281Z,87.51
2023-05-08T04:24:17.060Z,87.51
2023-05-08T04:25:17.049Z,87.51
2023-05-08T04:26:17.062Z,87.61
2023-05-08T04:27:16.992Z,87.61
2023-05-08T04:28:17.079Z,87.51
2023-05-08T04:29:17.068Z,87.51
2023-05-08T04:30:17.056Z,87.20
2023-05-08T04:31:17.068Z,87.05
2023-05-08T04:32:17.204Z,86.95
2023-05-08T04:33:16.980Z,86.75
2023-05-08T04:34:16.969Z,86.65
2023-05-08T04:35:16.974Z,86.33
2023-05-08T04:36:17.068Z,85.99
2023-05-08T04:37:17.003Z,85.17
2023-05-08T04:38:16.893Z,84.92
2023-05-08T04:39:17.055Z,84.31
2023-05-08T04:40:16.948Z,83.76
2023-05-08T04:41:16.735Z,83.76
2023-05-08T04:42:16.713Z,83.65
2023-05-08T04:43:16.765Z,83.80
2023-05-08T04:44:16.921Z,84.00
2023-05-08T04:45:16.835Z,84.41
2023-05-08T04:46:16.719Z,84.41
2023-05-08T04:47:16.668Z,84.61
2023-05-08T04:48:16.732Z,84.61
2023-05-08T04:49:16.676Z,84.86
2023-05-08T04:50:16.866Z,85.06
2023-05-08T04:51:16.701Z,85.38
2023-05-08T04:52:16.626Z,85.38
2023-05-08T04:53:16.639Z,85.38
2023-05-08T04:54:16.650Z,85.72
2023-05-08T04:55:16.667Z,85.89
2023-05-08T04:56:16.591Z,85.93
2023-05-08T04:57:16.580Z,85.89
2023-05-08T04:58:16.585Z,86.03
2023-05-08T04:59:16.653Z,86.33
2023-05-08T05:00:16.543Z,86.24
2023-05-08T05:01:16.709Z,86.13
2023-05-08T05:02:16.843Z,86.09
2023-05-08T05:03:16.836Z,86.03
2023-05-08T05:04:16.809Z,85.89
2023-05-08T05:05:16.752Z,85.82
2023-05-08T05:06:16.799Z,85.93
2023-05-08T05:07:16.801Z,85.89
2023-05-08T05:08:16.729Z,85.89
2023-05-08T05:09:16.488Z,85.58
2023-05-08T05:10:16.664Z,85.47
2023-05-08T05:11:16.589Z,85.62
2023-05-08T05:12:16.638Z,85.68
2023-05-08T05:13:16.693Z,85.58
2023-05-08T05:14:16.396Z,85.38
2023-05-08T05:15:16.587Z,85.58
2023-05-08T05:16:16.603Z,85.47
2023-05-08T05:17:16.592Z,85.17
2023-05-08T05:18:16.738Z,85.17
2023-05-08T05:19:16.652Z,85.06
2023-05-08T05:20:16.537Z,84.96
2023-05-08T05:21:16.437Z,84.76
2023-05-08T05:22:16.468Z,84.96
2023-05-08T05:23:16.658Z,84.72
2023-05-08T05:24:16.521Z,84.61
2023-05-08T05:25:16.549Z,84.41
2023-05-08T05:26:16.527Z,84.41
2023-05-08T05:27:16.421Z,84.61
2023-05-08T05:28:16.430Z,84.72
2023-05-08T05:29:16.565Z,84.52
2023-05-08T05:30:16.457Z,84.52
2023-05-08T05:31:16.476Z,84.10
2023-05-08T05:32:16.490Z,84.10
2023-05-08T05:33:16.522Z,83.90
2023-05-08T05:34:16.510Z,83.55
2023-05-08T05:35:16.530Z,83.55
2023-05-08T05:36:16.306Z,83.45
2023-05-08T05:37:16.322Z,83.34
2023-05-08T05:38:16.343Z,83.34
2023-05-08T05:39:16.195Z,83.59
2023-05-08T05:40:16.372Z,83.34
2023-05-08T05:41:16.326Z,82.45
2023-05-08T05:42:16.296Z,79.27
2023-05-08T05:43:16.222Z,76.09
2023-05-08T05:44:16.232Z,75.04
2023-05-08T05:45:16.329Z,75.82
2023-05-08T05:46:16.312Z,76.16
2023-05-08T05:47:16.296Z,77.22
2023-05-08T05:48:16.288Z,78.59
2023-05-08T05:49:16.306Z,79.54
2023-05-08T05:50:16.370Z,80.71
2023-05-08T05:51:16.282Z,81.57
2023-05-08T05:52:16.163Z,81.77
2023-05-08T05:53:16.248Z,81.87
2023-05-08T05:54:16.225Z,81.87
2023-05-08T05:55:16.212Z,81.32
2023-05-08T05:56:16.263Z,80.88
2023-05-08T05:57:16.168Z,79.37
2023-05-08T05:58:16.154Z,77.66
2023-05-08T05:59:16.141Z,75.48
2023-05-08T06:00:16.123Z,74.08
2023-05-08T06:01:16.173Z,72.28
2023-05-08T06:02:16.228Z,70.75
2023-05-08T06:03:16.170Z,68.85
2023-05-08T06:04:16.111Z,66.79
2023-05-08T06:05:16.099Z,66.18
2023-05-08T06:06:15.985Z,66.28
2023-05-08T06:07:16.089Z,65.61
2023-05-08T06:08:15.951Z,63.95
2023-05-08T06:09:15.975Z,64.56
2023-05-08T06:10:16.047Z,62.78
2023-05-08T06:11:16.031Z,62.24
2023-05-08T06:12:16.099Z,61.87
2023-05-08T06:13:16.156Z,61.02
2023-05-08T06:14:15.970Z,61.13
2023-05-08T06:15:15.747Z,60.46
2023-05-08T06:16:16.155Z,59.63
2023-05-08T06:17:15.997Z,59.16
2023-05-08T06:18:15.988Z,58.23
2023-05-08T06:19:15.878Z,57.46
2023-05-08T06:20:15.981Z,55.65
2023-05-08T06:21:15.866Z,57.98
2023-05-08T06:22:15.868Z,57.34
2023-05-08T06:23:15.986Z,56.68
2023-05-08T06:24:15.991Z,56.05
2023-05-08T06:25:15.854Z,56.15
2023-05-08T06:26:15.816Z,54.91
2023-05-08T06:27:15.791Z,54.79
2023-05-08T06:28:15.769Z,53.63
2023-05-08T06:29:15.894Z,52.92
2023-05-08T06:30:15.854Z,52.59
2023-05-08T06:31:16.015Z,52.54
2023-05-08T06:32:15.677Z,50.60
2023-05-08T06:33:15.700Z,50.51
2023-05-08T06:34:15.712Z,49.80
2023-05-08T06:35:15.693Z,51.11
2023-05-08T06:36:15.761Z,51.43
2023-05-08T06:37:15.652Z,50.96
2023-05-08T06:38:15.704Z,51.34
2023-05-08T06:39:15.682Z,50.60
2023-05-08T06:40:15.665Z,50.03
2023-05-08T06:41:15.725Z,48.38
2023-05-08T06:42:15.626Z,47.96
2023-05-08T06:43:15.603Z,47.77
2023-05-08T06:44:15.673Z,48.28
2023-05-08T06:45:15.802Z,47.77
2023-05-08T06:46:15.690Z,47.85
2023-05-08T06:47:15.605Z,47.70
2023-05-08T06:48:15.558Z,48.08
2023-05-08T06:49:15.590Z,47.75
2023-05-08T06:50:15.525Z,48.28
2023-05-08T06:51:15.595Z,47.03
2023-05-08T06:52:15.518Z,46.53
2023-05-08T06:53:15.492Z,48.16
2023-05-08T06:54:15.476Z,47.90
2023-05-08T06:55:15.493Z,49.05
2023-05-08T06:56:15.454Z,49.88
2023-05-08T06:57:15.603Z,51.97
2023-05-08T06:58:15.442Z,52.49
2023-05-08T06:59:15.493Z,53.20
2023-05-08T07:00:15.419Z,52.29
2023-05-08T07:01:15.590Z,53.50
2023-05-08T07:02:15.404Z,53.00
2023-05-08T07:03:15.594Z,51.86
2023-05-08T07:04:15.458Z,52.17
2023-05-08T07:05:15.785Z,52.06
2023-05-08T07:06:15.301Z,53.52
2023-05-08T07:07:15.385Z,53.85
2023-05-08T07:08:15.464Z,53.92
2023-05-08T07:09:16.018Z,54.30
2023-05-08T07:10:15.358Z,53.80
2023-05-08T07:11:15.338Z,54.00
2023-05-08T07:12:15.297Z,52.87
2023-05-08T07:13:15.452Z,51.51
2023-05-08T07:14:15.286Z,52.57
2023-05-08T07:15:25.227Z,52.22
2023-05-08T07:16:15.329Z,51.14
2023-05-08T07:17:15.285Z,49.51
2023-05-08T07:18:15.301Z,49.08
2023-05-08T07:19:15.345Z,49.21
2023-05-08T07:20:15.343Z,49.76
2023-05-08T07:21:15.262Z,50.56
2023-05-08T07:22:15.306Z,49.93
2023-05-08T07:23:15.233Z,49.88
2023-05-08T07:24:15.226Z,48.21
2023-05-08T07:25:15.476Z,46.91
2023-05-08T07:26:15.277Z,48.23
2023-05-08T07:27:15.186Z,47.63
2023-05-08T07:28:15.178Z,47.81
2023-05-08T07:29:15.221Z,48.78
2023-05-08T07:30:15.137Z,51.34
2023-05-08T07:31:15.257Z,50.41
2023-05-08T07:32:15.130Z,48.98
2023-05-08T07:33:15.384Z,49.48
2023-05-08T07:34:15.107Z,48.46
2023-05-08T07:35:15.306Z,48.86
2023-05-08T07:36:15.166Z,47.49
2023-05-08T07:37:15.148Z,47.58
2023-05-08T07:38:15.031Z,47.58
2023-05-08T07:39:15.178Z,47.91
2023-05-08T07:40:15.062Z,47.53
2023-05-08T07:41:15.151Z,47.91
2023-05-08T07:42:15.070Z,48.21
2023-05-08T07:43:15.055Z,48.66
2023-05-08T07:44:15.005Z,47.71
2023-05-08T07:45:15.192Z,47.71
2023-05-08T07:46:15.084Z,47.16
2023-05-08T07:47:15.118Z,47.14
2023-05-08T07:48:15.112Z,47.19
2023-05-08T07:49:14.965Z,47.86
2023-05-08T07:50:14.947Z,47.46
2023-05-08T07:51:14.973Z,49.31
2023-05-08T07:52:14.988Z,48.08
2023-05-08T07:53:15.127Z,47.56
2023-05-08T07:54:14.909Z,47.16
2023-05-08T07:55:15.044Z,47.74
2023-05-08T07:56:14.840Z,46.74
2023-05-08T07:57:14.892Z,46.72
2023-05-08T07:58:14.853Z,46.94
2023-05-08T07:59:14.909Z,47.14
2023-05-08T08:00:14.821Z,47.56
2023-05-08T08:01:14.863Z,46.81
2023-05-08T08:02:14.852Z,45.65
2023-05-08T08:03:14.848Z,45.37
2023-05-08T08:04:15.535Z,48.08
2023-05-08T08:05:15.034Z,48.57
2023-05-08T08:06:14.785Z,47.64
2023-05-08T08:07:14.785Z,47.14
2023-05-08T08:08:14.785Z,49.88
2023-05-08T08:09:14.857Z,52.57
2023-05-08T08:10:14.688Z,52.92
2023-05-08T08:11:14.756Z,52.44
2023-05-08T08:12:14.680Z,52.49
2023-05-08T08:13:14.742Z,51.26
2023-05-08T08:14:14.672Z,50.39
2023-05-08T08:15:14.990Z,47.61
2023-05-08T08:16:14.652Z,47.65
2023-05-08T08:17:14.621Z,44.91
2023-05-08T08:18:14.779Z,45.10
2023-05-08T08:19:14.618Z,47.24
2023-05-08T08:20:14.710Z,50.01
2023-05-08T08:21:14.714Z,49.16
2023-05-08T08:22:14.574Z,48.86
2023-05-08T08:23:14.558Z,48.94
2023-05-08T08:24:14.635Z,48.22
2023-05-08T08:25:14.950Z,47.99
2023-05-08T08:26:14.597Z,46.77
2023-05-08T08:27:14.574Z,46.89
2023-05-08T08:28:14.547Z,46.95
2023-05-08T08:29:14.520Z,45.71
2023-05-08T08:30:18.055Z,45.71
2023-05-08T08:31:14.605Z,45.59
2023-05-08T08:32:14.517Z,44.65
2023-05-08T08:33:15.832Z,45.48
2023-05-08T08:34:14.496Z,45.36
2023-05-08T08:35:14.829Z,45.71
2023-05-08T08:36:14.519Z,46.65
2023-05-08T08:37:14.586Z,46.23
2023-05-08T08:38:14.465Z,45.53
2023-05-08T08:39:15.435Z,45.73
2023-05-08T08:40:14.575Z,45.95
2023-05-08T08:41:14.504Z,46.65
2023-05-08T08:42:14.475Z,46.13
2023-05-08T08:43:14.449Z,46.85
2023-05-08T08:44:14.418Z,46.35
2023-05-08T08:45:14.618Z,46.01
2023-05-08T08:46:14.539Z,44.29
2023-05-08T08:47:14.357Z,45.21
2023-05-08T08:48:14.346Z,46.03
2023-05-08T08:49:14.399Z,45.71
2023-05-08T08:50:14.741Z,44.96
2023-05-08T08:51:14.326Z,43.95
2023-05-08T08:52:14.439Z,43.73
2023-05-08T08:53:14.408Z,43.23
2023-05-08T08:54:14.277Z,44.87
2023-05-08T08:55:14.571Z,44.12
2023-05-08T08:56:14.299Z,43.45
2023-05-08T08:57:14.274Z,45.10
2023-05-08T08:58:14.360Z,46.43
2023-05-08T08:59:14.251Z,45.59
2023-05-08T09:00:14.251Z,45.26
2023-05-08T09:01:14.251Z,44.32
2023-05-08T09:02:14.379Z,44.12
2023-05-08T09:03:14.261Z,43.90
2023-05-08T09:04:14.262Z,44.62
2023-05-08T09:05:14.274Z,44.74
2023-05-08T09:06:14.214Z,47.03
2023-05-08T09:07:14.141Z,46.73
2023-05-08T09:08:14.209Z,45.36
2023-05-08T09:09:14.187Z,45.18
2023-05-08T09:10:14.181Z,45.06
2023-05-08T09:11:14.099Z,45.66
2023-05-08T09:12:14.180Z,45.44
2023-05-08T09:13:14.122Z,44.54
2023-05-08T09:14:14.182Z,44.82
2023-05-08T09:15:14.472Z,43.66
2023-05-08T09:16:14.145Z,45.04
2023-05-08T09:17:14.078Z,46.56
2023-05-08T09:18:14.130Z,46.38
2023-05-08T09:19:14.168Z,48.67
2023-05-08T09:20:14.444Z,49.90
2023-05-08T09:21:14.010Z,49.49
2023-05-08T09:22:14.073Z,50.07
2023-05-08T09:23:14.052Z,47.20
2023-05-08T09:24:14.126Z,46.31
2023-05-08T09:25:14.264Z,44.96
2023-05-08T09:26:14.034Z,43.56
2023-05-08T09:27:13.950Z,40.90
2023-05-08T09:28:13.939Z,41.71
2023-05-08T09:29:14.012Z,43.86
2023-05-08T09:30:14.056Z,44.53
2023-05-08T09:31:13.843Z,47.58
2023-05-08T09:32:14.009Z,47.56
2023-05-08T09:33:13.788Z,46.84
2023-05-08T09:34:13.812Z,45.50
2023-05-08T09:35:14.260Z,44.90
2023-05-08T09:36:13.719Z,45.10
2023-05-08T09:37:13.748Z,45.10
2023-05-08T09:38:13.763Z,46.51
2023-05-08T09:39:13.697Z,46.73
2023-05-08T09:40:13.801Z,46.44
2023-05-08T09:41:13.780Z,47.68
2023-05-08T09:42:13.702Z,48.13
2023-05-08T09:43:13.691Z,44.16
2023-05-08T09:44:13.740Z,43.84
2023-05-08T09:45:13.939Z,44.00
2023-05-08T09:46:13.689Z,43.30
2023-05-08T09:47:13.673Z,43.60
2023-05-08T09:48:13.669Z,44.16
2023-05-08T09:49:13.651Z,46.09
2023-05-08T09:50:13.743Z,45.43
2023-05-08T09:51:13.664Z,43.26
2023-05-08T09:52:13.661Z,42.49
2023-05-08T09:53:13.627Z,44.16
2023-05-08T09:54:13.597Z,45.10
2023-05-08T09:55:13.611Z,47.03
2023-05-08T09:56:13.608Z,47.14
2023-05-08T09:57:13.612Z,47.56
2023-05-08T09:58:13.592Z,47.86
2023-05-08T09:59:13.597Z,48.30
2023-05-08T10:00:13.991Z,47.96
2023-05-08T10:01:13.586Z,47.31
2023-05-08T10:02:13.560Z,47.36
2023-05-08T10:03:13.621Z,47.78
2023-05-08T10:04:13.583Z,47.68
2023-05-08T10:05:13.622Z,46.73
2023-05-08T10:06:13.464Z,46.08
2023-05-08T10:07:13.519Z,45.03
2023-05-08T10:08:13.661Z,45.28
2023-05-08T10:09:13.583Z,45.37
2023-05-08T10:10:13.752Z,45.85
2023-05-08T10:11:13.550Z,45.55
2023-05-08T10:12:13.436Z,45.39
2023-05-08T10:13:13.570Z,43.16
2023-05-08T10:14:13.449Z,42.96
2023-05-08T10:15:13.624Z,42.03
2023-05-08T10:16:13.372Z,42.47
2023-05-08T10:17:13.443Z,42.58
2023-05-08T10:18:13.363Z,43.20
2023-05-08T10:19:13.367Z,44.71
2023-05-08T10:20:13.480Z,44.02
2023-05-08T10:21:13.362Z,44.18
2023-05-08T10:22:13.313Z,43.58
2023-05-08T10:23:13.297Z,43.24
2023-05-08T10:24:13.317Z,41.60
2023-05-08T10:25:13.474Z,40.56
2023-05-08T10:26:13.296Z,40.03
2023-05-08T10:27:13.245Z,39.73
2023-05-08T10:28:13.289Z,38.94
2023-05-08T10:29:13.241Z,38.96
2023-05-08T10:30:13.546Z,40.25
2023-05-08T10:31:13.304Z,38.45
2023-05-08T10:32:13.217Z,38.13
2023-05-08T10:33:13.222Z,39.71
2023-05-08T10:34:13.221Z,41.95
2023-05-08T10:35:13.194Z,43.28
2023-05-08T10:36:13.187Z,44.68
2023-05-08T10:37:13.184Z,45.87
2023-05-08T10:38:13.223Z,45.06
2023-05-08T10:39:13.229Z,44.93
2023-05-08T10:40:13.507Z,46.39
2023-05-08T10:41:13.135Z,46.31
2023-05-08T10:42:13.150Z,47.44
2023-05-08T10:43:13.148Z,46.37
2023-05-08T10:44:13.170Z,45.43
2023-05-08T10:45:13.140Z,45.01
2023-05-08T10:46:13.248Z,44.32
2023-05-08T10:47:13.104Z,44.12
2023-05-08T10:48:13.120Z,44.00
2023-05-08T10:49:13.116Z,43.58
2023-05-08T10:50:13.412Z,44.20
2023-05-08T10:51:13.298Z,42.85
2023-05-08T10:52:13.155Z,43.48
2023-05-08T10:53:13.072Z,43.66
2023-05-08T10:54:13.152Z,43.24
2023-05-08T10:55:13.140Z,43.66
2023-05-08T10:56:13.135Z,45.45
2023-05-08T10:57:13.140Z,45.95
2023-05-08T10:58:13.037Z,45.26
2023-05-08T10:59:12.944Z,46.47
2023-05-08T11:00:13.152Z,47.66
2023-05-08T11:01:13.031Z,50.65
2023-05-08T11:02:13.050Z,51.79
2023-05-08T11:03:23.472Z,53.14
2023-05-08T11:04:13.252Z,54.30
2023-05-08T11:05:12.927Z,55.52
2023-05-08T11:06:12.975Z,55.73
2023-05-08T11:07:13.038Z,55.82
2023-05-08T11:08:12.906Z,56.33
2023-05-08T11:09:12.912Z,56.70
2023-05-08T11:10:13.289Z,55.40
2023-05-08T11:11:12.846Z,55.40
2023-05-08T11:12:12.905Z,56.26
2023-05-08T11:13:12.985Z,57.59
2023-05-08T11:14:13.023Z,57.98
2023-05-08T11:15:12.807Z,58.18
2023-05-08T11:16:12.823Z,58.89
2023-05-08T11:17:12.821Z,57.26
2023-05-08T11:18:12.824Z,56.83
2023-05-08T11:19:12.847Z,56.73
2023-05-08T11:20:12.994Z,56.52
2023-05-08T11:21:12.790Z,58.09
2023-05-08T11:22:12.734Z,58.29
2023-05-08T11:23:12.812Z,57.98
2023-05-08T11:24:12.737Z,58.39
2023-05-08T11:25:12.745Z,57.79
2023-05-08T11:26:12.760Z,57.48
2023-05-08T11:27:12.674Z,57.39
2023-05-08T11:28:12.681Z,57.68
2023-05-08T11:29:12.682Z,57.28
2023-05-08T11:30:12.813Z,57.98
2023-05-08T11:31:12.843Z,58.42
2023-05-08T11:32:12.650Z,58.49
2023-05-08T11:33:12.657Z,58.79
2023-05-08T11:34:12.624Z,58.16
2023-05-08T11:35:12.611Z,57.96
2023-05-08T11:36:12.610Z,57.76
2023-05-08T11:37:12.828Z,57.26
2023-05-08T11:38:12.736Z,56.85
2023-05-08T11:39:12.568Z,56.85
2023-05-08T11:40:12.704Z,57.46
2023-05-08T11:41:12.575Z,58.16
2023-05-08T11:42:12.527Z,57.96
2023-05-08T11:43:12.562Z,57.76
2023-05-08T11:44:14.292Z,57.98
2023-05-08T11:45:12.555Z,58.29
2023-05-08T11:46:12.623Z,58.36
2023-05-08T11:47:12.661Z,58.76
2023-05-08T11:48:12.535Z,57.46
2023-05-08T11:49:12.482Z,56.65
2023-05-08T11:50:12.740Z,56.76
2023-05-08T11:51:12.483Z,57.68
2023-05-08T11:52:12.457Z,57.98
2023-05-08T11:53:12.436Z,59.19
2023-05-08T11:54:12.397Z,59.19
2023-05-08T11:55:12.587Z,58.59
2023-05-08T11:56:12.434Z,57.89
2023-05-08T11:57:12.534Z,58.39
2023-05-08T11:58:12.372Z,57.56
2023-05-08T11:59:12.358Z,57.15
2023-05-08T12:00:12.703Z,57.06
2023-05-08T12:01:12.360Z,57.56
2023-05-08T12:02:12.410Z,57.66
2023-05-08T12:03:12.434Z,56.85
2023-05-08T12:04:12.574Z,56.76
2023-05-08T12:05:12.315Z,57.33
2023-05-08T12:06:12.270Z,57.13
2023-05-08T12:07:12.281Z,55.82
2023-05-08T12:08:12.246Z,56.13
2023-05-08T12:09:12.321Z,56.65
2023-05-08T12:10:12.553Z,57.06
2023-05-08T12:11:12.237Z,57.13
2023-05-08T12:12:12.239Z,56.33
2023-05-08T12:13:12.292Z,56.13
2023-05-08T12:14:12.203Z,56.45
2023-05-08T12:15:12.252Z,56.33
2023-05-08T12:16:12.211Z,56.23
2023-05-08T12:17:12.204Z,56.33
2023-05-08T12:18:12.193Z,56.33
2023-05-08T12:19:12.189Z,56.60
2023-05-08T12:20:12.534Z,56.70
2023-05-08T12:21:12.170Z,56.50
2023-05-08T12:22:12.145Z,56.60
2023-05-08T12:23:12.152Z,56.10
2023-05-08T12:24:12.098Z,56.10
2023-05-08T12:25:12.313Z,55.73
2023-05-08T12:26:12.097Z,56.52
2023-05-08T12:27:12.058Z,56.52
2023-05-08T12:28:12.047Z,56.35
2023-05-08T12:29:12.061Z,57.46
2023-05-08T12:30:12.214Z,56.26
2023-05-08T12:31:12.150Z,57.28
2023-05-08T12:32:11.997Z,57.28
2023-05-08T12:33:12.092Z,58.06
2023-05-08T12:34:12.087Z,56.56
2023-05-08T12:35:12.201Z,56.45
2023-05-08T12:36:12.161Z,56.45
2023-05-08T12:37:12.084Z,56.83
2023-05-08T12:38:12.052Z,55.93
2023-05-08T12:39:12.179Z,56.13
2023-05-08T12:40:12.359Z,55.93
2023-05-08T12:41:12.084Z,55.90
2023-05-08T12:42:12.145Z,56.52
2023-05-08T12:43:12.059Z,56.33
2023-05-08T12:44:12.021Z,55.82
2023-05-08T12:45:12.079Z,56.43
2023-05-08T12:46:12.027Z,55.32
2023-05-08T12:47:11.902Z,56.13
2023-05-08T12:48:12.003Z,56.63
2023-05-08T12:49:11.979Z,56.02
2023-05-08T12:50:12.036Z,56.15
2023-05-08T12:51:11.936Z,55.55
2023-05-08T12:52:12.070Z,55.85